Arsenal, Arkansas
Current Conditions -  °F | °C
As of 6:53 AM on Thursday 27 Nov 2014 (Local Time) from KPBF Reporting Station
Light Snow Light Snow  
Wind Chill: 29°   Ceiling: Unl
Heat Index: 34°   Visibility: 9mi
Dew Point: 26°   Wind: 6mph
Humidity: 73%   Direction: 340°NNW
Pressure: 30.49"   Gusts: NA
Location:  34.193°N, 91.9403°W
Report Text: KPBF 271253Z AUTO 34005KT 9SM -SN CLR 01/M03 A3049 RMK AO2 SLP326 P0000 T00111033
Loading
Personal Weather Stations






























Interactive Weather Map New forecast layout! Learn more

10-Day Weather Forecast

Advertisements
Track Severe Weather on mobile